Airfield :







YOU CAN JOIN US ON...

 
LOGIN :

Register | Disclaimer

   EN    FR    IT 

 









Legend :    VFR   Marginal VFR   IFR   Intensive IFR   Very Intensive IFR
Visi :
Ceiling :
>= 8 km
>= 3000ft
5 to 8 km
1000 to 3000 ft
1500m to 5 km
500 to 1000 ft
800 to 1500m
200 to 500 ft
< 800m
< 200 ft
Symbols :   Thunderstorms  Fog  Heavy snow  Heavy precipitations  Wind > 20 kt






- Airport Elevation : 160 ft
- IATA code : YYG


CYYG - Charlottetown

CURRENT METAR :
  • 260100Z 12005KT 15SM OVC013 M04/M05 A3030 RMK SC8 SLP266

EXPIRED METARs :
  • 260000Z 15005KT 15SM BKN014 M05/M06 A3033 RMK SC7 SLP275
  • 252300Z 13003KT 15SM BKN013 BKN240 M05/M06 A3034 RMK SC5CI2 SLP278

TAF TAF CYYG
Valid from the 26 at 00:00 until the 26 at 12:00 UTC


252338Z 2600/2612 12005KT P6SM BKN012
TEMPO 2600/2602 BKN008
FM260200 14008KT P6SM BKN008
TEMPO 2602/2612 BKN012
BECMG 2610/2612 14012G22KT RMK NXT FCST BY 260600Z



MET'MAP, your aeronautical weather chart ! - Copyright ORBIFLY December 2007 - Disclaimer

ORBIFLY MET'MAP TEAM :

Programming & Development : Alexandra Zaïnal
Concept & original design : Baudouin d'Aumeries
Assistance for programming : Marc-Olivier Méhu
Technical & hardware support : Manuel Goepfert

Contact : metmap@orbifly.com




SOURCES & CREDITS :

   NOAA